createdAt,value
2023-01-06T00:00:21.151Z,22
2023-01-06T00:01:23.552Z,22
2023-01-06T00:02:26.084Z,22
2023-01-06T00:03:28.531Z,22
2023-01-06T00:04:30.833Z,22
2023-01-06T00:05:33.125Z,22
2023-01-06T00:06:35.370Z,22
2023-01-06T00:07:38.008Z,22
2023-01-06T00:08:40.753Z,22
2023-01-06T00:09:43.263Z,22
2023-01-06T00:10:45.772Z,22.1
2023-01-06T00:11:47.997Z,22.1
2023-01-06T00:12:50.660Z,22.1
2023-01-06T00:13:52.636Z,22.1
2023-01-06T00:14:54.937Z,22.1
2023-01-06T00:15:57.644Z,22.1
2023-01-06T00:17:00.301Z,22.1
2023-01-06T00:18:02.830Z,22.1
2023-01-06T00:19:05.077Z,22.1
2023-01-06T00:20:07.733Z,22.1
2023-01-06T00:21:09.961Z,22.2
2023-01-06T00:22:12.205Z,22.2
2023-01-06T00:23:14.565Z,22.2
2023-01-06T00:24:17.304Z,22.2
2023-01-06T00:25:19.833Z,22.2
2023-01-06T00:26:21.811Z,22.2
2023-01-06T00:27:24.303Z,22.2
2023-01-06T00:28:26.667Z,22.2
2023-01-06T00:29:29.184Z,22.2
2023-01-06T00:30:31.727Z,22.2
2023-01-06T00:31:34.079Z,22.2
2023-01-06T00:32:36.775Z,22.2
2023-01-06T00:33:39.010Z,22.2
2023-01-06T00:34:41.281Z,22.2
2023-01-06T00:35:43.916Z,22.2
2023-01-06T00:36:46.466Z,22.2
2023-01-06T00:37:48.443Z,22.2
2023-01-06T00:38:51.104Z,22.3
2023-01-06T00:39:53.994Z,22.3
2023-01-06T00:40:56.529Z,22.3
2023-01-06T00:41:58.762Z,22.3
2023-01-06T00:43:01.271Z,22.3
2023-01-06T00:44:03.420Z,22.3
2023-01-06T00:45:05.425Z,22.3
2023-01-06T00:46:08.144Z,22.3
2023-01-06T00:47:10.831Z,22.3
2023-01-06T00:48:13.380Z,22.3
2023-01-06T00:49:15.647Z,22.3
2023-01-06T00:50:17.585Z,22.3
2023-01-06T00:51:20.217Z,22.3
2023-01-06T00:52:22.708Z,22.3
2023-01-06T00:53:24.942Z,22.3
2023-01-06T00:54:27.567Z,22.3
2023-01-06T00:55:30.348Z,22.3
2023-01-06T00:56:33.076Z,22.3
2023-01-06T00:57:35.567Z,22.3
2023-01-06T00:58:37.849Z,22.3
2023-01-06T00:59:40.385Z,22.3
2023-01-06T01:00:42.710Z,22.3
2023-01-06T01:01:45.124Z,22.3
2023-01-06T01:02:47.906Z,22.3
2023-01-06T01:03:50.284Z,22.3
2023-01-06T01:04:52.520Z,22.4
2023-01-06T01:05:54.751Z,22.4
2023-01-06T01:06:57.398Z,22.4
2023-01-06T01:07:59.901Z,22.4
2023-01-06T01:09:02.209Z,22.4
2023-01-06T01:10:04.875Z,22.4
2023-01-06T01:11:07.514Z,22.4
2023-01-06T01:12:09.744Z,22.4
2023-01-06T01:13:11.807Z,22.4
2023-01-06T01:14:14.326Z,22.4
2023-01-06T01:15:16.985Z,22.4
2023-01-06T01:16:19.497Z,22.4
2023-01-06T01:17:22.027Z,22.4
2023-01-06T01:18:23.971Z,22.4
2023-01-06T01:19:26.489Z,22.4
2023-01-06T01:20:29.078Z,22.4
2023-01-06T01:21:31.300Z,22.4
2023-01-06T01:22:33.668Z,22.4
2023-01-06T01:23:35.915Z,22.4
2023-01-06T01:24:38.434Z,22.4
2023-01-06T01:25:41.108Z,22.4
2023-01-06T01:26:43.611Z,22.4
2023-01-06T01:27:46.121Z,22.4
2023-01-06T01:28:48.384Z,22.5
2023-01-06T01:29:50.610Z,22.5
2023-01-06T01:30:53.335Z,22.5
2023-01-06T01:31:55.972Z,22.5
2023-01-06T01:32:58.504Z,22.5
2023-01-06T01:34:01.022Z,22.5
2023-01-06T01:35:03.416Z,22.5
2023-01-06T01:36:05.624Z,22.5
2023-01-06T01:37:07.858Z,22.5
2023-01-06T01:38:10.486Z,22.5
2023-01-06T01:39:12.426Z,22.5
2023-01-06T01:40:14.973Z,22.5
2023-01-06T01:41:17.589Z,22.5
2023-01-06T01:42:20.351Z,22.4
2023-01-06T01:43:22.858Z,22.4
2023-01-06T01:44:25.084Z,22.4
2023-01-06T01:45:27.033Z,22.5
2023-01-06T01:46:29.877Z,22.5
2023-01-06T01:47:32.576Z,22.5
2023-01-06T01:48:34.841Z,22.5
2023-01-06T01:49:36.837Z,22.5
2023-01-06T01:50:39.325Z,22.5
2023-01-06T01:51:41.570Z,22.5
2023-01-06T01:52:44.051Z,22.5
2023-01-06T01:53:46.694Z,22.5
2023-01-06T01:54:49.389Z,22.5
2023-01-06T01:55:51.642Z,22.5
2023-01-06T01:56:54.040Z,22.5
2023-01-06T01:57:56.800Z,22.5
2023-01-06T01:58:59.057Z,22.5
2023-01-06T02:00:01.284Z,22.5
2023-01-06T02:01:03.833Z,22.5
2023-01-06T02:02:07.066Z,22.5
2023-01-06T02:03:10.060Z,22.5
2023-01-06T02:04:12.523Z,22.5
2023-01-06T02:05:15.028Z,22.5
2023-01-06T02:06:18.448Z,22.5
2023-01-06T02:07:20.702Z,22.5
2023-01-06T02:08:23.351Z,22.5
2023-01-06T02:09:25.748Z,22.5
2023-01-06T02:10:27.977Z,22.5
2023-01-06T02:11:30.217Z,22.5
2023-01-06T02:12:32.479Z,22.5
2023-01-06T02:13:35.242Z,22.5
2023-01-06T02:14:37.755Z,22.5
2023-01-06T02:15:40.346Z,22.5
2023-01-06T02:16:42.911Z,22.5
2023-01-06T02:17:45.539Z,22.5
2023-01-06T02:18:48.108Z,22.6
2023-01-06T02:19:50.611Z,22.6
2023-01-06T02:20:53.149Z,22.6
2023-01-06T02:21:55.373Z,22.6
2023-01-06T02:22:57.880Z,22.6
2023-01-06T02:24:00.431Z,22.6
2023-01-06T02:25:02.991Z,22.6
2023-01-06T02:26:05.499Z,22.5
2023-01-06T02:27:07.740Z,22.5
2023-01-06T02:28:10.061Z,22.5
2023-01-06T02:29:12.808Z,22.5
2023-01-06T02:30:15.301Z,22.5
2023-01-06T02:31:18.107Z,22.5
2023-01-06T02:32:20.749Z,22.5
2023-01-06T02:33:23.421Z,22.5
2023-01-06T02:34:25.932Z,22.5
2023-01-06T02:35:28.438Z,22.5
2023-01-06T02:36:30.404Z,22.5
2023-01-06T02:37:32.920Z,22.5
2023-01-06T02:38:35.486Z,22.5
2023-01-06T02:39:38.023Z,22.5
2023-01-06T02:40:40.657Z,22.5
2023-01-06T02:41:43.170Z,22.5
2023-01-06T02:42:45.422Z,22.5
2023-01-06T02:43:47.688Z,22.5
2023-01-06T02:44:50.455Z,22.5
2023-01-06T02:45:52.975Z,22.6
2023-01-06T02:46:55.182Z,22.6
2023-01-06T02:47:57.410Z,22.6
2023-01-06T02:49:00.057Z,22.6
2023-01-06T02:50:02.566Z,22.6
2023-01-06T02:51:05.113Z,22.6
2023-01-06T02:52:07.624Z,22.5
2023-01-06T02:53:10.152Z,22.5
2023-01-06T02:54:12.147Z,22.5
2023-01-06T02:55:14.371Z,22.5
2023-01-06T02:56:16.987Z,22.5
2023-01-06T02:57:19.227Z,22.5
2023-01-06T02:58:21.447Z,22.5
2023-01-06T02:59:24.090Z,22.5
2023-01-06T03:00:26.954Z,22.5
2023-01-06T03:01:29.815Z,22.5
2023-01-06T03:02:32.318Z,22.5
2023-01-06T03:03:34.860Z,22.5
2023-01-06T03:04:37.706Z,22.5
2023-01-06T03:05:40.151Z,22.5
2023-01-06T03:06:42.682Z,22.5
2023-01-06T03:07:45.183Z,22.6
2023-01-06T03:08:47.680Z,22.6
2023-01-06T03:09:50.172Z,22.6
2023-01-06T03:10:52.706Z,22.6
2023-01-06T03:11:55.351Z,22.6
2023-01-06T03:12:57.876Z,22.6
2023-01-06T03:14:00.403Z,22.6
2023-01-06T03:15:02.774Z,22.6
2023-01-06T03:16:05.640Z,22.6
2023-01-06T03:17:08.347Z,22.6
2023-01-06T03:18:10.330Z,22.6
2023-01-06T03:19:12.838Z,22.6
2023-01-06T03:20:15.175Z,22.5
2023-01-06T03:21:17.708Z,22.5
2023-01-06T03:22:20.204Z,22.5
2023-01-06T03:23:22.704Z,22.5
2023-01-06T03:24:24.952Z,22.5
2023-01-06T03:25:27.484Z,22.5
2023-01-06T03:26:29.766Z,22.5
2023-01-06T03:27:32.405Z,22.6
2023-01-06T03:28:34.894Z,22.6
2023-01-06T03:29:37.397Z,22.6
2023-01-06T03:30:39.376Z,22.6
2023-01-06T03:31:42.462Z,22.6
2023-01-06T03:32:45.102Z,22.6
2023-01-06T03:33:47.632Z,22.6
2023-01-06T03:34:50.169Z,22.6
2023-01-06T03:35:52.543Z,22.6
2023-01-06T03:36:54.489Z,22.6
2023-01-06T03:37:56.723Z,22.6
2023-01-06T03:38:58.928Z,22.6
2023-01-06T03:40:00.919Z,22.6
2023-01-06T03:41:03.414Z,22.6
2023-01-06T03:42:05.927Z,22.6
2023-01-06T03:43:08.272Z,22.6
2023-01-06T03:44:10.543Z,22.6
2023-01-06T03:45:12.773Z,22.6
2023-01-06T03:46:15.371Z,22.6
2023-01-06T03:47:18.356Z,22.6
2023-01-06T03:48:20.314Z,22.6
2023-01-06T03:49:22.841Z,22.6
2023-01-06T03:50:25.075Z,22.6
2023-01-06T03:51:27.759Z,22.6
2023-01-06T03:52:30.551Z,22.6
2023-01-06T03:53:32.497Z,22.6
2023-01-06T03:54:35.135Z,22.6
2023-01-06T03:55:37.727Z,22.6
2023-01-06T03:56:39.967Z,22.6
2023-01-06T03:57:42.201Z,22.6
2023-01-06T03:58:44.860Z,22.6
2023-01-06T03:59:46.836Z,22.6
2023-01-06T04:00:49.495Z,22.7
2023-01-06T04:01:52.373Z,22.6
2023-01-06T04:02:55.394Z,22.6
2023-01-06T04:03:58.116Z,22.6
2023-01-06T04:05:00.811Z,22.6
2023-01-06T04:06:02.789Z,22.6
2023-01-06T04:07:05.124Z,22.6
2023-01-06T04:08:07.668Z,22.6
2023-01-06T04:09:10.210Z,22.6
2023-01-06T04:10:12.443Z,22.6
2023-01-06T04:11:14.956Z,22.6
2023-01-06T04:12:17.519Z,22.6
2023-01-06T04:13:20.047Z,22.5
2023-01-06T04:14:22.413Z,22.5
2023-01-06T04:15:24.373Z,22.5
2023-01-06T04:16:27.146Z,22.5
2023-01-06T04:17:29.998Z,22.5
2023-01-06T04:18:32.744Z,22.5
2023-01-06T04:19:35.265Z,22.5
2023-01-06T04:20:37.502Z,22.5
2023-01-06T04:21:40.030Z,22.5
2023-01-06T04:22:42.089Z,22.5
2023-01-06T04:23:44.618Z,22.5
2023-01-06T04:24:47.124Z,22.5
2023-01-06T04:25:49.361Z,22.5
2023-01-06T04:26:51.859Z,22.5
2023-01-06T04:27:53.808Z,22.5
2023-01-06T04:28:56.019Z,22.5
2023-01-06T04:29:58.657Z,22.5
2023-01-06T04:31:01.153Z,22.5
2023-01-06T04:32:03.665Z,22.5
2023-01-06T04:33:06.186Z,22.5
2023-01-06T04:34:08.671Z,22.5
2023-01-06T04:35:10.333Z,22.5
2023-01-06T04:36:12.299Z,22.5
2023-01-06T04:37:14.827Z,22.5
2023-01-06T04:38:17.167Z,22.5
2023-01-06T04:39:19.399Z,22.5
2023-01-06T04:40:21.614Z,22.5
2023-01-06T04:41:23.839Z,22.5
2023-01-06T04:42:26.345Z,22.5
2023-01-06T04:43:28.837Z,22.5
2023-01-06T04:44:31.364Z,22.5
2023-01-06T04:45:34.233Z,22.5
2023-01-06T04:46:36.937Z,22.5
2023-01-06T04:47:39.448Z,22.5
2023-01-06T04:48:41.814Z,22.4
2023-01-06T04:49:44.191Z,22.5
2023-01-06T04:50:46.686Z,22.5
2023-01-06T04:51:49.197Z,22.4
2023-01-06T04:52:51.442Z,22.4
2023-01-06T04:53:54.058Z,22.4
2023-01-06T04:54:56.561Z,22.4
2023-01-06T04:55:58.783Z,22.4
2023-01-06T04:57:01.063Z,22.4
2023-01-06T04:58:03.584Z,22.4
2023-01-06T04:59:05.800Z,22.4
2023-01-06T05:00:08.313Z,22.4
2023-01-06T05:01:11.393Z,22.4
2023-01-06T05:02:14.448Z,22.4
2023-01-06T05:03:16.712Z,22.4
2023-01-06T05:04:19.255Z,22.4
2023-01-06T05:05:22.017Z,22.4
2023-01-06T05:06:24.531Z,22.4
2023-01-06T05:07:26.474Z,22.4
2023-01-06T05:08:28.986Z,22.4
2023-01-06T05:09:31.069Z,22.4
2023-01-06T05:10:33.616Z,22.4
2023-01-06T05:11:35.604Z,22.4
2023-01-06T05:12:37.293Z,22.4
2023-01-06T05:13:39.520Z,22.4
2023-01-06T05:14:41.770Z,22.4
2023-01-06T05:15:44.017Z,22.4
2023-01-06T05:16:46.921Z,22.4
2023-01-06T05:17:49.139Z,22.4
2023-01-06T05:18:50.847Z,22.4
2023-01-06T05:19:53.479Z,22.4
2023-01-06T05:20:55.874Z,22.4
2023-01-06T05:21:58.096Z,22.4
2023-01-06T05:23:00.633Z,22.4
2023-01-06T05:24:02.593Z,22.4
2023-01-06T05:25:05.245Z,22.4
2023-01-06T05:26:07.789Z,22.4
2023-01-06T05:27:10.029Z,22.4
2023-01-06T05:28:12.262Z,22.4
2023-01-06T05:29:14.497Z,22.4
2023-01-06T05:30:17.081Z,22.4
2023-01-06T05:31:19.771Z,22.4
2023-01-06T05:32:22.552Z,22.4
2023-01-06T05:33:24.772Z,22.3
2023-01-06T05:34:27.013Z,22.3
2023-01-06T05:35:29.408Z,22.3
2023-01-06T05:36:32.046Z,22.3
2023-01-06T05:37:34.593Z,22.3
2023-01-06T05:38:37.137Z,22.3
2023-01-06T05:39:39.656Z,22.3
2023-01-06T05:40:42.307Z,22.3
2023-01-06T05:41:44.528Z,22.3
2023-01-06T05:42:46.740Z,22.3
2023-01-06T05:43:49.269Z,22.3
2023-01-06T05:44:51.803Z,22.3
2023-01-06T05:45:54.536Z,22.3
2023-01-06T05:46:57.012Z,22.3
2023-01-06T05:47:59.664Z,22.3
2023-01-06T05:49:01.885Z,22.3
2023-01-06T05:50:04.409Z,22.3
2023-01-06T05:51:07.085Z,22.3
2023-01-06T05:52:09.791Z,22.3
2023-01-06T05:53:12.314Z,22.3
2023-01-06T05:54:14.825Z,22.3
2023-01-06T05:55:17.380Z,22.3
2023-01-06T05:56:19.735Z,22.3
2023-01-06T05:57:22.256Z,22.3
2023-01-06T05:58:24.767Z,22.3
2023-01-06T05:59:27.017Z,22.3
2023-01-06T06:00:29.500Z,22.3
2023-01-06T06:01:31.969Z,22.3
2023-01-06T06:02:34.553Z,22.3
2023-01-06T06:03:37.129Z,22.3
2023-01-06T06:04:39.546Z,22.3
2023-01-06T06:05:41.781Z,22.3
2023-01-06T06:06:44.415Z,22.3
2023-01-06T06:07:47.185Z,22.3
2023-01-06T06:08:49.701Z,22.3
2023-01-06T06:09:51.923Z,22.3
2023-01-06T06:10:54.531Z,22.3
2023-01-06T06:11:57.189Z,22.3
2023-01-06T06:12:59.397Z,22.3
2023-01-06T06:14:01.655Z,22.3
2023-01-06T06:15:04.186Z,22.3
2023-01-06T06:16:06.768Z,22.2
2023-01-06T06:17:09.509Z,22.2
2023-01-06T06:18:12.023Z,22.2
2023-01-06T06:19:14.349Z,22.2
2023-01-06T06:20:16.600Z,22.2
2023-01-06T06:21:18.823Z,22.2
2023-01-06T06:22:21.445Z,22.2
2023-01-06T06:23:24.100Z,22.2
2023-01-06T06:24:26.353Z,22.2
2023-01-06T06:25:28.572Z,22.2
2023-01-06T06:26:31.176Z,22.2
2023-01-06T06:27:33.835Z,22.2
2023-01-06T06:28:36.328Z,22.2
2023-01-06T06:29:38.858Z,22.2
2023-01-06T06:30:41.409Z,22.2
2023-01-06T06:31:44.143Z,22.2
2023-01-06T06:32:46.835Z,22.2
2023-01-06T06:33:49.380Z,22.2
2023-01-06T06:34:52.076Z,22.2
2023-01-06T06:35:54.571Z,22.2
2023-01-06T06:36:56.526Z,22.2
2023-01-06T06:37:59.203Z,22.2
2023-01-06T06:39:01.685Z,22.2
2023-01-06T06:40:04.197Z,22.2
2023-01-06T06:41:06.430Z,22.2
2023-01-06T06:42:08.972Z,22.2
2023-01-06T06:43:11.596Z,22.2
2023-01-06T06:44:13.576Z,22.2
2023-01-06T06:45:15.254Z,22.2
2023-01-06T06:46:17.765Z,22.2
2023-01-06T06:47:20.052Z,22.2
2023-01-06T06:48:22.565Z,22.2
2023-01-06T06:49:25.074Z,22.2
2023-01-06T06:50:27.730Z,22.2
2023-01-06T06:51:30.256Z,22.2
2023-01-06T06:52:32.480Z,22.2
2023-01-06T06:53:35.053Z,22.2
2023-01-06T06:54:37.788Z,22.2
2023-01-06T06:55:40.327Z,22.2
2023-01-06T06:56:42.855Z,22.2
2023-01-06T06:57:45.368Z,22.2
2023-01-06T06:58:47.698Z,22.2
2023-01-06T06:59:49.414Z,22.2
2023-01-06T07:00:51.947Z,22.2
2023-01-06T07:01:54.894Z,22.2
2023-01-06T07:02:57.439Z,22.2
2023-01-06T07:03:59.678Z,22.2
2023-01-06T07:05:02.198Z,22.2
2023-01-06T07:06:04.619Z,22.2
2023-01-06T07:07:06.854Z,22.2
2023-01-06T07:08:09.095Z,22.2
2023-01-06T07:09:11.441Z,22.2
2023-01-06T07:10:14.205Z,22.2
2023-01-06T07:11:16.805Z,22.1
2023-01-06T07:12:19.323Z,22.1
2023-01-06T07:13:21.872Z,22.1
2023-01-06T07:14:23.984Z,22.1
2023-01-06T07:15:25.660Z,22.1
2023-01-06T07:16:27.922Z,22.1
2023-01-06T07:17:30.200Z,22.1
2023-01-06T07:18:32.745Z,22.1
2023-01-06T07:19:35.398Z,22.1
2023-01-06T07:20:37.936Z,22.1
2023-01-06T07:21:40.634Z,22.1
2023-01-06T07:22:43.124Z,22.1
2023-01-06T07:23:45.652Z,22.1
2023-01-06T07:24:48.308Z,22.1
2023-01-06T07:25:51.054Z,22.1
2023-01-06T07:26:53.575Z,22.1
2023-01-06T07:27:56.086Z,22.1
2023-01-06T07:28:58.332Z,22.1
2023-01-06T07:30:00.998Z,22.1
2023-01-06T07:31:03.748Z,22.1
2023-01-06T07:32:07.105Z,22.1
2023-01-06T07:33:12.232Z,22.1
2023-01-06T07:34:14.470Z,22.1
2023-01-06T07:35:16.974Z,22.1
2023-01-06T07:36:19.228Z,22.1
2023-01-06T07:37:21.613Z,22.1
2023-01-06T07:38:23.839Z,22.1
2023-01-06T07:39:26.370Z,22.1
2023-01-06T07:40:28.809Z,22.1
2023-01-06T07:41:31.576Z,22.1
2023-01-06T07:42:33.831Z,22.1
2023-01-06T07:43:36.350Z,22.1
2023-01-06T07:44:38.607Z,22.1
2023-01-06T07:45:41.266Z,22.1
2023-01-06T07:46:43.805Z,22.1
2023-01-06T07:47:46.040Z,22.1
2023-01-06T07:48:47.987Z,22.1
2023-01-06T07:49:50.226Z,22.1
2023-01-06T07:50:52.763Z,22.1
2023-01-06T07:51:55.697Z,22.1
2023-01-06T07:52:58.559Z,22.1
2023-01-06T07:54:00.836Z,22.1
2023-01-06T07:55:03.135Z,22.1
2023-01-06T07:56:05.484Z,22.1
2023-01-06T07:57:08.018Z,22.1
2023-01-06T07:58:10.532Z,22.1
2023-01-06T07:59:12.777Z,22.1
2023-01-06T08:00:15.292Z,22.1
2023-01-06T08:01:18.317Z,22.1
2023-01-06T08:02:21.637Z,22.1
2023-01-06T08:03:24.707Z,22.1
2023-01-06T08:04:27.594Z,22.1
2023-01-06T08:05:30.146Z,22.1
2023-01-06T08:06:32.654Z,22.1
2023-01-06T08:07:34.613Z,22.1
2023-01-06T08:08:37.236Z,22.1
2023-01-06T08:09:39.479Z,22.1
2023-01-06T08:10:42.017Z,22.1
2023-01-06T08:11:44.422Z,22.1
2023-01-06T08:12:47.171Z,22.1
2023-01-06T08:13:49.162Z,22.1
2023-01-06T08:14:51.682Z,22.1
2023-01-06T08:15:54.087Z,22.1
2023-01-06T08:16:56.626Z,22.1
2023-01-06T08:17:58.846Z,22.1
2023-01-06T08:19:00.885Z,22.1
2023-01-06T08:20:03.417Z,22.1
2023-01-06T08:21:05.636Z,22.1
2023-01-06T08:22:08.165Z,22.1
2023-01-06T08:23:10.413Z,22.1
2023-01-06T08:24:13.167Z,22.1
2023-01-06T08:25:15.719Z,22.1
2023-01-06T08:26:17.985Z,22.1
2023-01-06T08:27:20.678Z,22.1
2023-01-06T08:28:23.445Z,22.1
2023-01-06T08:29:25.371Z,22.1
2023-01-06T08:30:27.308Z,22.1
2023-01-06T08:31:30.167Z,22.1
2023-01-06T08:32:33.045Z,22.1
2023-01-06T08:33:35.269Z,22.1
2023-01-06T08:34:37.281Z,22.1
2023-01-06T08:35:39.569Z,22.1
2023-01-06T08:36:41.817Z,22.1
2023-01-06T08:37:44.068Z,22.1
2023-01-06T08:38:46.323Z,22.1
2023-01-06T08:39:49.017Z,22.1
2023-01-06T08:40:51.548Z,22.1
2023-01-06T08:41:53.749Z,22.1
2023-01-06T08:42:56.372Z,22.1
2023-01-06T08:43:58.603Z,22.1
2023-01-06T08:45:01.172Z,22.1
2023-01-06T08:46:03.709Z,22.1
2023-01-06T08:47:05.825Z,22.1
2023-01-06T08:48:08.464Z,22.1
2023-01-06T08:49:11.029Z,22.1
2023-01-06T08:50:13.308Z,22.1
2023-01-06T08:51:15.854Z,22.1
2023-01-06T08:52:18.167Z,22.1
2023-01-06T08:53:20.688Z,22.1
2023-01-06T08:54:23.236Z,22.1
2023-01-06T08:55:25.877Z,22.1
2023-01-06T08:56:28.408Z,22.1
2023-01-06T08:57:30.929Z,22.1
2023-01-06T08:58:33.572Z,22.1
2023-01-06T08:59:36.323Z,22.1
2023-01-06T09:00:38.856Z,22.1
2023-01-06T09:01:41.491Z,22.1
2023-01-06T09:02:44.415Z,22.1
2023-01-06T09:03:47.073Z,22.1
2023-01-06T09:04:49.661Z,22.1
2023-01-06T09:05:52.355Z,22.1
2023-01-06T09:06:56.797Z,22.1
2023-01-06T09:07:59.455Z,22.1
2023-01-06T09:09:01.978Z,22.1
2023-01-06T09:10:03.952Z,22.1
2023-01-06T09:11:06.306Z,22.1
2023-01-06T09:12:09.284Z,22.1
2023-01-06T09:13:11.281Z,22.1
2023-01-06T09:14:13.923Z,22.1
2023-01-06T09:15:16.768Z,22.1
2023-01-06T09:16:19.587Z,22.1
2023-01-06T09:17:22.251Z,22.1
2023-01-06T09:18:24.232Z,22.1
2023-01-06T09:19:26.568Z,22.1
2023-01-06T09:20:28.819Z,22.1
2023-01-06T09:21:31.350Z,22.1
2023-01-06T09:22:33.873Z,22.1
2023-01-06T09:23:36.409Z,22.1
2023-01-06T09:24:38.959Z,22.1
2023-01-06T09:25:41.173Z,22.1
2023-01-06T09:26:43.571Z,22.1
2023-01-06T09:27:46.173Z,22.1
2023-01-06T09:28:48.499Z,22.1
2023-01-06T09:29:51.214Z,22.1
2023-01-06T09:30:54.148Z,22.1
2023-01-06T09:31:56.888Z,22.1
2023-01-06T09:32:59.413Z,22.1
2023-01-06T09:34:01.375Z,22.1
2023-01-06T09:35:03.922Z,22.1
2023-01-06T09:36:06.163Z,22.1
2023-01-06T09:37:08.678Z,22.1
2023-01-06T09:38:10.640Z,22.1
2023-01-06T09:39:13.166Z,22.1
2023-01-06T09:40:15.693Z,22.1
2023-01-06T09:41:17.927Z,22.1
2023-01-06T09:42:20.660Z,22.1
2023-01-06T09:43:23.244Z,22.1
2023-01-06T09:44:25.543Z,22.1
2023-01-06T09:45:27.896Z,22.1
2023-01-06T09:46:30.664Z,22.1
2023-01-06T09:47:33.011Z,22.1
2023-01-06T09:48:35.232Z,22.1
2023-01-06T09:49:37.192Z,22.1
2023-01-06T09:50:39.293Z,22.1
2023-01-06T09:51:41.569Z,22.1
2023-01-06T09:52:44.081Z,22.1
2023-01-06T09:53:46.392Z,22.1
2023-01-06T09:54:48.668Z,22.1
2023-01-06T09:55:51.172Z,22.1
2023-01-06T09:56:53.429Z,22.1
2023-01-06T09:59:00.878Z,22.1
2023-01-06T10:00:03.165Z,22.1
2023-01-06T10:01:06.064Z,22.1
2023-01-06T10:02:09.540Z,22.1
2023-01-06T10:03:12.077Z,22.1
2023-01-06T10:04:14.186Z,22.1
2023-01-06T10:05:16.301Z,22.1
2023-01-06T10:06:19.362Z,22.1
2023-01-06T10:07:21.225Z,22.1
2023-01-06T10:08:23.468Z,22.1
2023-01-06T10:09:25.995Z,22.1
2023-01-06T10:10:28.539Z,22.1
2023-01-06T10:11:30.796Z,22.1
2023-01-06T10:12:33.255Z,22.1
2023-01-06T10:13:35.900Z,22.1
2023-01-06T10:14:38.401Z,22.1
2023-01-06T10:15:40.432Z,22.1
2023-01-06T10:16:43.059Z,22.1
2023-01-06T10:17:45.743Z,22.1
2023-01-06T10:18:48.240Z,22.1
2023-01-06T10:19:50.494Z,22.1
2023-01-06T10:20:53.027Z,22.1
2023-01-06T10:21:55.392Z,22.1
2023-01-06T10:22:57.646Z,22.1
2023-01-06T10:24:00.165Z,22.1
2023-01-06T10:25:02.786Z,22.1
2023-01-06T10:26:05.298Z,22.1
2023-01-06T10:27:09.902Z,22.1
2023-01-06T10:28:12.185Z,22.1
2023-01-06T10:29:14.860Z,22.1
2023-01-06T10:30:16.805Z,22.1
2023-01-06T10:31:19.510Z,22.1
2023-01-06T10:32:21.817Z,22.1
2023-01-06T10:34:27.871Z,22.1
2023-01-06T10:35:30.438Z,22.1
2023-01-06T10:36:32.724Z,22.1
2023-01-06T10:37:35.181Z,22.1
2023-01-06T10:38:37.498Z,22.1
2023-01-06T10:39:40.047Z,22.1
2023-01-06T10:40:42.576Z,22.1
2023-01-06T10:41:45.089Z,22.1
2023-01-06T10:42:47.341Z,22.1
2023-01-06T10:43:49.354Z,22.1
2023-01-06T10:44:51.156Z,22.1
2023-01-06T10:45:53.399Z,22.1
2023-01-06T10:46:55.845Z,22.1
2023-01-06T10:47:58.410Z,22.1
2023-01-06T10:49:01.177Z,22.1
2023-01-06T10:50:03.445Z,22.1
2023-01-06T10:51:05.380Z,22.1
2023-01-06T10:52:07.653Z,22.1
2023-01-06T10:53:10.304Z,22.1
2023-01-06T10:54:12.562Z,22.1
2023-01-06T10:55:14.537Z,22.1
2023-01-06T10:56:17.068Z,22.1
2023-01-06T10:57:19.589Z,22
2023-01-06T10:58:21.816Z,22.1
2023-01-06T10:59:24.092Z,22
2023-01-06T11:00:26.754Z,22.1
2023-01-06T11:01:29.726Z,22.1
2023-01-06T11:02:35.306Z,22.1
2023-01-06T11:03:38.870Z,22.1
2023-01-06T11:04:41.843Z,22.1
2023-01-06T11:05:43.825Z,22.1
2023-01-06T11:06:45.774Z,22.1
2023-01-06T11:07:48.228Z,22.1
2023-01-06T11:08:51.090Z,22.1
2023-01-06T11:09:53.630Z,22.1
2023-01-06T11:10:55.879Z,22.1
2023-01-06T11:11:57.345Z,22.1
2023-01-06T11:12:59.594Z,22.1
2023-01-06T11:14:01.913Z,22.1
2023-01-06T11:15:04.441Z,22.1
2023-01-06T11:16:06.885Z,22.1
2023-01-06T11:17:09.592Z,22.1
2023-01-06T11:18:12.122Z,22.1
2023-01-06T11:19:14.762Z,22.1
2023-01-06T11:20:17.633Z,22.1
2023-01-06T11:21:20.232Z,22.1
2023-01-06T11:22:22.779Z,22.1
2023-01-06T11:23:25.061Z,22.1
2023-01-06T11:24:27.419Z,22.1
2023-01-06T11:25:29.955Z,22.1
2023-01-06T11:26:32.501Z,22.1
2023-01-06T11:27:34.725Z,22.1
2023-01-06T11:28:36.689Z,22.1
2023-01-06T11:29:37.832Z,22.1
2023-01-06T11:30:40.078Z,22.1
2023-01-06T11:31:42.985Z,22.1
2023-01-06T11:32:45.620Z,22.1
2023-01-06T11:33:48.119Z,22.1
2023-01-06T11:34:50.781Z,22.1
2023-01-06T11:35:53.568Z,22.1
2023-01-06T11:36:56.083Z,22.1
2023-01-06T11:37:58.314Z,22.1
2023-01-06T11:39:00.634Z,22.1
2023-01-06T11:41:08.194Z,22.1
2023-01-06T11:42:10.151Z,22.1
2023-01-06T11:43:12.688Z,22.1
2023-01-06T11:44:14.377Z,22.1
2023-01-06T11:45:16.337Z,22.1
2023-01-06T11:46:18.787Z,22.1
2023-01-06T11:47:21.593Z,22.1
2023-01-06T11:48:24.142Z,22.1
2023-01-06T11:49:26.089Z,22.1
2023-01-06T11:50:28.770Z,22.1
2023-01-06T11:51:31.541Z,22.1
2023-01-06T11:52:34.097Z,22.1
2023-01-06T11:53:36.619Z,22.1
2023-01-06T11:54:39.124Z,22.1
2023-01-06T11:55:41.810Z,22.1
2023-01-06T11:56:43.778Z,22.1
2023-01-06T11:57:46.001Z,22.1
2023-01-06T11:58:48.222Z,22.1
2023-01-06T11:59:50.146Z,22.1
2023-01-06T12:00:52.661Z,22.1
2023-01-06T12:01:55.645Z,22.1
2023-01-06T12:02:58.820Z,22.1
2023-01-06T12:04:01.165Z,22.1
2023-01-06T12:05:03.701Z,22.1
2023-01-06T12:06:06.403Z,22.1
2023-01-06T12:07:09.171Z,22.1
2023-01-06T12:08:11.414Z,22.1
2023-01-06T12:09:13.900Z,22.1
2023-01-06T12:10:16.126Z,22.1
2023-01-06T12:11:18.482Z,22.1
2023-01-06T12:12:20.998Z,22.1
2023-01-06T12:13:23.540Z,22.1
2023-01-06T12:15:30.789Z,22.1
2023-01-06T12:16:33.727Z,22.1
2023-01-06T12:17:37.069Z,22.1
2023-01-06T12:18:40.282Z,22.1
2023-01-06T12:19:42.518Z,22.1
2023-01-06T12:20:45.039Z,22.1
2023-01-06T12:21:47.409Z,22.1
2023-01-06T12:22:50.153Z,22.1
2023-01-06T12:23:52.132Z,22.1
2023-01-06T12:24:54.647Z,22.1
2023-01-06T12:25:57.170Z,22.1
2023-01-06T12:26:59.839Z,22.1
2023-01-06T12:28:02.399Z,22.1
2023-01-06T12:29:04.936Z,22.1
2023-01-06T12:30:07.497Z,22.1
2023-01-06T12:31:10.080Z,22.1
2023-01-06T12:32:12.807Z,22.1
2023-01-06T12:33:15.058Z,22.1
2023-01-06T12:34:17.425Z,22.1
2023-01-06T12:35:20.018Z,22.1
2023-01-06T12:36:22.479Z,22.1
2023-01-06T12:37:25.105Z,22.1
2023-01-06T12:38:27.527Z,22.1
2023-01-06T12:39:30.059Z,22.1
2023-01-06T12:40:32.613Z,22.1
2023-01-06T12:41:34.563Z,22.1
2023-01-06T12:42:36.917Z,22.1
2023-01-06T12:43:39.414Z,22.1
2023-01-06T12:44:41.963Z,22.1
2023-01-06T12:46:49.457Z,22.1
2023-01-06T12:47:55.487Z,22.1
2023-01-06T12:48:57.705Z,22.1
2023-01-06T12:49:59.809Z,22.1
2023-01-06T12:51:02.090Z,22.1
2023-01-06T12:52:04.345Z,22.1
2023-01-06T12:54:11.956Z,22.1
2023-01-06T12:55:14.751Z,22.1
2023-01-06T12:56:17.243Z,22.1
2023-01-06T12:57:19.512Z,22.1
2023-01-06T12:58:21.862Z,22.1
2023-01-06T12:59:24.105Z,22.1
2023-01-06T13:00:26.351Z,22.1
2023-01-06T13:01:28.997Z,22.1
2023-01-06T13:02:31.660Z,22.1
2023-01-06T13:03:38.624Z,22.1
2023-01-06T13:04:41.195Z,22.1
2023-01-06T13:05:43.561Z,22.1
2023-01-06T13:06:46.091Z,22.1
2023-01-06T13:07:48.313Z,22.1
2023-01-06T13:08:50.733Z,22.1
2023-01-06T13:09:53.076Z,22.1
2023-01-06T13:10:55.743Z,22.1
2023-01-06T13:11:57.965Z,22.1
2023-01-06T13:12:59.958Z,22.1
2023-01-06T13:14:02.381Z,22.1
2023-01-06T13:15:04.611Z,22.1
2023-01-06T13:16:06.576Z,22.1
2023-01-06T13:17:08.817Z,22.1
2023-01-06T13:18:11.379Z,22.1
2023-01-06T13:19:13.631Z,22.1
2023-01-06T13:20:15.861Z,22.1
2023-01-06T13:21:18.250Z,22.1
2023-01-06T13:22:20.549Z,22.1
2023-01-06T13:23:22.477Z,22.1
2023-01-06T13:24:29.154Z,22.1
2023-01-06T13:25:31.813Z,22.1
2023-01-06T13:26:34.559Z,22.1
2023-01-06T13:27:36.828Z,22.1
2023-01-06T13:28:38.794Z,22.1
2023-01-06T13:29:41.424Z,22.1
2023-01-06T13:30:44.119Z,22.1
2023-01-06T13:31:46.466Z,22.1
2023-01-06T13:32:49.004Z,22.1
2023-01-06T13:33:51.539Z,22.1
2023-01-06T13:34:53.311Z,22.1
2023-01-06T13:35:55.557Z,22.1
2023-01-06T13:36:58.012Z,22.1
2023-01-06T13:38:00.527Z,22.1
2023-01-06T13:39:03.049Z,22.1
2023-01-06T13:40:05.618Z,22.1
2023-01-06T13:41:08.009Z,22.1
2023-01-06T13:42:10.781Z,22.1
2023-01-06T13:43:13.028Z,22.1
2023-01-06T13:44:15.562Z,22.1
2023-01-06T13:45:18.223Z,22.1
2023-01-06T13:46:21.082Z,22.1
2023-01-06T13:47:23.632Z,22.1
2023-01-06T13:48:26.213Z,22.1
2023-01-06T13:49:28.431Z,22.1
2023-01-06T13:50:30.920Z,22.1
2023-01-06T13:51:32.873Z,22.1
2023-01-06T13:52:35.517Z,22.1
2023-01-06T13:53:38.020Z,22.1
2023-01-06T13:54:40.283Z,22.1
2023-01-06T13:55:42.824Z,22.1
2023-01-06T13:56:45.181Z,22.1
2023-01-06T13:57:47.664Z,22.1
2023-01-06T13:58:50.180Z,22.1